Time;durP1;ratioP1;P1;durP2;ratioP2;P2;SDS_P1;SDS_P2;PMS_P1;PMS_P2;Temp;Humidity;BMP_temperature;BMP_pressure;BME280_temperature;BME280_humidity;BME280_pressure;Samples;Min_cycle;Max_cycle;Signal;HPM_P1;HPM_P2
2021/12/03 00:01:29;;;;;;;13.20;6.95;;;0.70;99.90;;;;;;5064487;28;20120;-60
2021/12/03 00:03:54;;;;;;;11.98;6.82;;;0.60;99.90;;;;;;5063505;28;20051;-63
2021/12/03 00:06:21;;;;;;;12.55;6.68;;;0.50;99.90;;;;;;5064059;28;20498;-61
2021/12/03 00:08:47;;;;;;;15.25;8.20;;;0.50;99.90;;;;;;5062750;28;20032;-59
2021/12/03 00:11:13;;;;;;;10.13;7.63;;;0.60;99.90;;;;;;5062633;28;20045;-61
2021/12/03 00:13:41;;;;;;;13.02;8.18;;;0.60;99.90;;;;;;5067514;28;20044;-59
2021/12/03 00:16:07;;;;;;;11.18;7.75;;;0.60;99.90;;;;;;5056308;28;20037;-61
2021/12/03 00:18:36;;;;;;;11.52;7.45;;;0.60;99.90;;;;;;5061759;28;20029;-60
2021/12/03 00:21:06;;;;;;;9.95;7.00;;;0.50;99.90;;;;;;5061239;28;20040;-61
2021/12/03 00:24:07;;;;;;;10.75;6.50;;;0.50;99.90;;;;;;5067504;28;20607;-64
2021/12/03 00:26:32;;;;;;;13.38;7.70;;;0.40;99.90;;;;;;5026156;28;20037;-61
2021/12/03 00:28:58;;;;;;;12.38;7.10;;;0.40;99.90;;;;;;5054494;28;20040;-60
2021/12/03 00:31:24;;;;;;;10.02;6.50;;;0.40;99.90;;;;;;5055840;28;20519;-61
2021/12/03 00:33:50;;;;;;;12.25;7.18;;;0.40;99.90;;;;;;5059487;28;20052;-62
2021/12/03 00:36:15;;;;;;;11.45;7.50;;;0.30;99.90;;;;;;5055660;28;20036;-60
2021/12/03 00:38:45;;;;;;;11.55;7.30;;;0.30;99.90;;;;;;5055144;28;20033;-60
2021/12/03 00:41:15;;;;;;;14.00;7.32;;;0.20;99.90;;;;;;5054851;28;20536;-61
2021/12/03 00:43:47;;;;;;;12.55;7.10;;;0.20;99.90;;;;;;5057969;28;20033;-61
2021/12/03 00:46:16;;;;;;;12.20;7.93;;;0.20;99.90;;;;;;5060933;28;20036;-62
2021/12/03 00:48:48;;;;;;;13.60;8.38;;;0.40;99.90;;;;;;5062717;28;20685;-61
2021/12/03 00:51:15;;;;;;;14.20;8.30;;;0.40;99.90;;;;;;5061204;28;20037;-62
2021/12/03 00:53:42;;;;;;;14.32;8.05;;;0.50;99.90;;;;;;5064868;28;20021;-62
2021/12/03 00:56:09;;;;;;;13.18;7.78;;;0.50;99.90;;;;;;5060298;28;20513;-62
2021/12/03 00:58:35;;;;;;;13.25;8.13;;;0.50;99.90;;;;;;5062854;28;20176;-62
2021/12/03 01:01:01;;;;;;;14.40;8.68;;;0.50;99.90;;;;;;5059422;28;20051;-60
2021/12/03 01:03:28;;;;;;;15.77;8.60;;;0.60;99.90;;;;;;5061765;28;20438;-64
2021/12/03 01:05:56;;;;;;;12.73;7.80;;;0.60;99.90;;;;;;5063004;28;20055;-62
2021/12/03 01:08:21;;;;;;;14.50;8.52;;;0.60;99.90;;;;;;5061747;28;20035;-62
2021/12/03 01:10:47;;;;;;;14.98;9.55;;;0.60;99.90;;;;;;5061280;28;20022;-53
2021/12/03 01:13:19;;;;;;;14.80;9.57;;;0.50;99.90;;;;;;5063203;28;20484;-60
2021/12/03 01:15:47;;;;;;;14.77;8.88;;;0.40;99.90;;;;;;5059583;28;20455;-61
2021/12/03 01:18:14;;;;;;;15.15;8.52;;;0.40;99.90;;;;;;5059737;28;20446;-57
2021/12/03 01:20:43;;;;;;;14.68;8.98;;;0.40;99.90;;;;;;5061583;28;20012;-57
2021/12/03 01:23:11;;;;;;;15.70;9.05;;;0.40;99.90;;;;;;5064990;28;20024;-58
2021/12/03 01:25:37;;;;;;;15.05;9.13;;;0.30;99.90;;;;;;5062101;28;20506;-58
2021/12/03 01:28:04;;;;;;;15.70;8.73;;;0.30;99.90;;;;;;5062639;28;20025;-60
2021/12/03 01:30:31;;;;;;;16.58;9.05;;;0.30;99.90;;;;;;5059256;28;20040;-57
2021/12/03 01:33:00;;;;;;;14.55;8.85;;;0.40;99.90;;;;;;5061031;28;20037;-60
2021/12/03 01:35:26;;;;;;;12.77;8.30;;;0.30;99.90;;;;;;5063132;28;20037;-58
2021/12/03 01:37:52;;;;;;;16.27;9.05;;;0.20;99.90;;;;;;5062708;28;20033;-57
2021/12/03 01:40:21;;;;;;;16.38;8.63;;;0.20;99.90;;;;;;5060143;28;20032;-57
2021/12/03 01:43:24;;;;;;;15.10;9.05;;;0.20;99.90;;;;;;5064190;28;20025;-63
2021/12/03 01:45:58;;;;;;;16.00;7.88;;;0.10;99.90;;;;;;5062051;28;20024;-58
2021/12/03 01:48:25;;;;;;;12.63;7.53;;;0.20;99.90;;;;;;5061607;28;20071;-61
2021/12/03 01:50:53;;;;;;;12.38;7.80;;;0.20;99.90;;;;;;5060228;28;20083;-55
2021/12/03 01:53:22;;;;;;;11.82;7.75;;;0.20;99.90;;;;;;5061130;28;20028;-60
2021/12/03 01:55:49;;;;;;;13.10;8.05;;;0.20;99.90;;;;;;5061193;28;20024;-58
2021/12/03 01:58:15;;;;;;;14.73;7.93;;;0.20;99.90;;;;;;5049378;28;20052;-61
2021/12/03 02:00:45;;;;;;;15.90;8.20;;;0.20;99.90;;;;;;5060594;28;20388;-61
2021/12/03 02:03:16;;;;;;;12.88;7.85;;;0.20;99.90;;;;;;5061397;28;20043;-59
2021/12/03 02:05:43;;;;;;;18.00;7.32;;;0.30;99.90;;;;;;5043575;28;20032;-59
2021/12/03 02:08:09;;;;;;;13.80;7.70;;;0.30;99.90;;;;;;5062239;28;20072;-55
2021/12/03 02:10:35;;;;;;;11.90;7.30;;;0.30;99.90;;;;;;5057799;28;20127;-60
2021/12/03 02:13:01;;;;;;;12.45;8.77;;;0.20;99.90;;;;;;5061630;28;20029;-54
2021/12/03 02:15:27;;;;;;;11.75;7.72;;;0.20;99.90;;;;;;5059929;28;20025;-57
2021/12/03 02:17:53;;;;;;;12.30;7.00;;;0.20;99.90;;;;;;5057798;28;20037;-57
2021/12/03 02:20:19;;;;;;;11.93;6.65;;;0.00;99.90;;;;;;5059557;28;20057;-55
2021/12/03 02:22:46;;;;;;;11.55;7.15;;;0.10;99.90;;;;;;5062280;28;20083;-61
2021/12/03 02:25:20;;;;;;;10.07;6.53;;;0.10;99.90;;;;;;5062221;28;20028;-62
2021/12/03 02:27:48;;;;;;;25.37;7.53;;;0.00;99.90;;;;;;5062577;28;20056;-60
2021/12/03 02:30:14;;;;;;;13.60;7.65;;;0.00;99.90;;;;;;5060150;28;20635;-60
2021/12/03 02:32:43;;;;;;;15.32;7.40;;;0.10;99.90;;;;;;5062745;28;20040;-56
2021/12/03 02:35:09;;;;;;;14.63;7.38;;;0.00;99.90;;;;;;5043754;28;20400;-56
2021/12/03 02:37:35;;;;;;;13.07;6.72;;;0.10;99.90;;;;;;5062341;28;20044;-62
2021/12/03 02:40:01;;;;;;;15.10;7.20;;;0.10;99.90;;;;;;5058214;28;20033;-59
2021/12/03 02:42:26;;;;;;;13.45;7.53;;;0.00;99.90;;;;;;5066006;28;20032;-59
2021/12/03 02:44:52;;;;;;;13.45;7.68;;;-0.10;99.90;;;;;;5071582;28;20105;-59
2021/12/03 02:47:18;;;;;;;13.73;7.68;;;0.00;99.90;;;;;;5071555;28;20467;-61
2021/12/03 02:49:43;;;;;;;14.77;7.45;;;0.00;99.90;;;;;;5070954;28;20039;-57
2021/12/03 02:52:10;;;;;;;17.40;7.75;;;0.00;99.90;;;;;;5071254;28;20537;-54
2021/12/03 02:54:36;;;;;;;11.95;8.15;;;0.00;99.90;;;;;;5070961;28;20044;-55
2021/12/03 02:57:03;;;;;;;12.05;7.85;;;0.00;99.90;;;;;;5070730;28;20040;-59
2021/12/03 02:59:30;;;;;;;12.27;8.13;;;0.20;99.90;;;;;;5070848;28;20906;-58
2021/12/03 03:01:56;;;;;;;11.48;7.43;;;0.20;99.90;;;;;;5071750;28;20029;-59
2021/12/03 03:04:22;;;;;;;14.10;7.53;;;0.20;99.90;;;;;;5070028;28;20802;-58
2021/12/03 03:06:47;;;;;;;13.90;7.03;;;0.20;99.90;;;;;;5071731;28;20032;-60
2021/12/03 03:09:14;;;;;;;12.73;7.18;;;0.20;99.90;;;;;;5070674;28;20119;-63
2021/12/03 03:11:40;;;;;;;14.07;7.10;;;0.30;99.90;;;;;;5071207;28;20040;-59
2021/12/03 03:14:06;;;;;;;13.35;7.63;;;0.30;99.90;;;;;;5070083;28;20037;-59
2021/12/03 03:16:33;;;;;;;15.15;7.82;;;0.20;99.90;;;;;;5070464;28;20446;-63
2021/12/03 03:18:59;;;;;;;13.75;7.70;;;0.20;99.90;;;;;;5070806;28;20492;-59
2021/12/03 03:21:25;;;;;;;12.18;6.75;;;0.30;99.90;;;;;;5073944;28;20113;-59
2021/12/03 03:23:51;;;;;;;11.45;7.18;;;0.20;99.90;;;;;;5091395;28;20028;-60
2021/12/03 03:26:18;;;;;;;12.43;6.88;;;0.10;99.90;;;;;;5090583;28;20028;-59
2021/12/03 03:28:44;;;;;;;13.55;7.07;;;0.10;99.90;;;;;;5091943;28;20116;-63
2021/12/03 03:31:12;;;;;;;11.52;6.28;;;0.10;99.90;;;;;;5091985;28;20060;-63
2021/12/03 03:33:38;;;;;;;10.00;6.13;;;0.20;99.90;;;;;;5091625;28;20044;-57
2021/12/03 03:36:04;;;;;;;14.68;6.70;;;0.20;99.90;;;;;;5092263;28;20028;-60
2021/12/03 03:38:29;;;;;;;13.60;7.20;;;0.10;99.90;;;;;;5091919;28;20447;-57
2021/12/03 03:40:55;;;;;;;12.90;6.55;;;0.10;99.90;;;;;;5075082;28;20044;-59
2021/12/03 03:43:22;;;;;;;12.60;6.65;;;0.10;99.90;;;;;;5070963;28;20029;-57
2021/12/03 03:45:49;;;;;;;11.68;6.28;;;0.10;99.90;;;;;;5071123;28;20028;-61
2021/12/03 03:48:14;;;;;;;11.60;6.28;;;0.10;99.90;;;;;;5070806;28;20025;-56
2021/12/03 03:50:41;;;;;;;8.95;5.75;;;0.10;99.90;;;;;;5070356;28;20036;-60
2021/12/03 03:53:07;;;;;;;11.77;5.85;;;0.10;99.90;;;;;;5070826;28;20037;-56
2021/12/03 03:55:33;;;;;;;11.55;5.63;;;0.10;99.90;;;;;;5073945;28;20043;-58
2021/12/03 03:58:01;;;;;;;7.15;4.80;;;0.10;99.90;;;;;;5074515;28;20048;-60
2021/12/03 04:00:37;;;;;;;9.65;5.20;;;0.10;99.90;;;;;;5072914;28;20036;-60
2021/12/03 04:03:03;;;;;;;9.27;5.40;;;0.10;99.90;;;;;;5074502;28;20036;-60
2021/12/03 04:05:29;;;;;;;13.85;5.28;;;0.10;99.90;;;;;;5073950;28;20037;-60
2021/12/03 04:07:54;;;;;;;7.63;4.43;;;0.10;99.90;;;;;;5072267;28;20507;-59
2021/12/03 04:10:20;;;;;;;10.98;4.85;;;0.10;99.90;;;;;;5072291;28;20037;-60
2021/12/03 04:12:46;;;;;;;12.52;4.97;;;0.10;99.90;;;;;;5073973;28;20039;-57
2021/12/03 04:15:13;;;;;;;10.50;4.97;;;0.10;99.90;;;;;;5073672;28;20044;-61
2021/12/03 04:17:40;;;;;;;12.13;5.07;;;0.10;99.90;;;;;;5076058;28;20154;-59
2021/12/03 04:20:08;;;;;;;10.35;4.80;;;0.00;99.90;;;;;;5093214;28;20032;-58
2021/12/03 04:22:34;;;;;;;11.93;5.28;;;-0.10;99.90;;;;;;5079011;28;20055;-55
2021/12/03 04:25:01;;;;;;;8.35;4.88;;;-0.10;99.90;;;;;;5073642;28;20412;-58
2021/12/03 04:27:27;;;;;;;13.40;5.57;;;-0.10;99.90;;;;;;5073822;28;20024;-62
2021/12/03 04:29:53;;;;;;;9.50;4.75;;;-0.10;99.90;;;;;;5073560;28;20736;-59
2021/12/03 04:32:19;;;;;;;7.68;4.40;;;0.00;99.90;;;;;;5073281;28;20059;-57
2021/12/03 04:34:45;;;;;;;12.45;4.85;;;-0.10;99.90;;;;;;5073344;28;20405;-63
2021/12/03 04:37:11;;;;;;;8.75;4.18;;;-0.10;99.90;;;;;;5072897;28;20040;-61
2021/12/03 04:39:37;;;;;;;8.32;4.55;;;-0.20;99.90;;;;;;5070932;28;20052;-62
2021/12/03 04:42:03;;;;;;;9.85;4.47;;;-0.20;99.90;;;;;;5072912;28;20024;-62
2021/12/03 04:44:28;;;;;;;10.68;4.80;;;-0.20;99.90;;;;;;5072060;28;20033;-60
2021/12/03 04:46:54;;;;;;;6.57;4.53;;;-0.20;99.90;;;;;;5073598;28;20021;-60
2021/12/03 04:49:20;;;;;;;8.77;4.90;;;-0.30;99.90;;;;;;5072955;28;20497;-60
2021/12/03 04:51:45;;;;;;;9.95;5.18;;;-0.40;99.90;;;;;;5073486;28;20047;-62
2021/12/03 04:54:11;;;;;;;11.77;5.25;;;-0.40;99.90;;;;;;5073322;28;20047;-57
2021/12/03 04:56:37;;;;;;;15.60;5.72;;;-0.30;99.90;;;;;;5073493;28;20040;-57
2021/12/03 04:59:03;;;;;;;11.80;5.38;;;-0.30;99.90;;;;;;5072849;28;20574;-57
2021/12/03 05:01:28;;;;;;;8.05;5.13;;;-0.30;99.90;;;;;;5072457;28;20025;-58
2021/12/03 05:03:54;;;;;;;13.65;6.13;;;-0.40;99.90;;;;;;5071536;28;20037;-60
2021/12/03 05:06:29;;;;;;;12.60;6.53;;;-0.40;99.90;;;;;;5071375;28;20090;-54
2021/12/03 05:08:55;;;;;;;13.98;7.05;;;-0.40;99.90;;;;;;5072591;28;20033;-56
2021/12/03 05:11:21;;;;;;;13.82;7.00;;;-0.40;99.90;;;;;;5072863;28;20504;-57
2021/12/03 05:13:47;;;;;;;12.02;7.35;;;-0.40;99.90;;;;;;5072612;28;20036;-56
2021/12/03 05:16:13;;;;;;;12.43;7.40;;;-0.40;99.90;;;;;;5071867;28;20028;-58
2021/12/03 05:18:42;;;;;;;14.18;7.13;;;-0.50;99.90;;;;;;5072789;28;20037;-56
2021/12/03 05:21:07;;;;;;;14.55;6.85;;;-0.50;99.90;;;;;;5071373;28;20029;-58
2021/12/03 05:23:33;;;;;;;10.70;6.35;;;-0.50;99.90;;;;;;5072728;28;20199;-58
2021/12/03 05:25:59;;;;;;;12.98;7.53;;;-0.60;99.90;;;;;;5071753;28;20040;-58
2021/12/03 05:28:26;;;;;;;17.00;7.32;;;-0.60;99.90;;;;;;5073309;28;20036;-58
2021/12/03 05:30:52;;;;;;;11.90;5.63;;;-0.60;99.90;;;;;;5072311;28;20032;-61
2021/12/03 05:33:19;;;;;;;13.15;6.38;;;-0.60;99.90;;;;;;5072340;28;20041;-57
2021/12/03 05:35:45;;;;;;;11.43;5.90;;;-0.60;99.90;;;;;;5072541;28;20025;-60
2021/12/03 05:38:11;;;;;;;13.18;5.28;;;-0.60;99.90;;;;;;5072546;28;20503;-63
2021/12/03 05:40:37;;;;;;;11.90;4.90;;;-0.60;99.90;;;;;;5059772;28;20033;-59
2021/12/03 05:43:04;;;;;;;9.60;5.32;;;-0.60;99.90;;;;;;5052434;28;20523;-59
2021/12/03 05:45:31;;;;;;;8.55;5.60;;;-0.60;99.90;;;;;;5034339;28;20041;-55
2021/12/03 05:47:57;;;;;;;12.57;5.35;;;-0.60;99.90;;;;;;5051240;28;20550;-61
2021/12/03 05:50:23;;;;;;;11.18;5.28;;;-0.60;99.90;;;;;;5052308;28;20043;-58
2021/12/03 05:52:50;;;;;;;9.52;5.00;;;-0.60;99.90;;;;;;5052079;28;20456;-60
2021/12/03 05:55:16;;;;;;;9.60;5.35;;;-0.60;99.90;;;;;;5052394;28;20029;-59
2021/12/03 05:57:43;;;;;;;9.20;5.28;;;-0.60;99.90;;;;;;5052151;28;20120;-60
2021/12/03 06:00:20;;;;;;;10.10;5.70;;;-0.60;99.90;;;;;;5051406;28;20033;-58
2021/12/03 06:02:46;;;;;;;9.27;5.30;;;-0.60;99.90;;;;;;5052164;28;20029;-59
2021/12/03 06:05:11;;;;;;;12.80;5.95;;;-0.60;99.90;;;;;;5065134;28;20032;-58
2021/12/03 06:07:37;;;;;;;10.05;6.07;;;-0.70;99.90;;;;;;5072180;28;20017;-61
2021/12/03 06:10:03;;;;;;;8.35;5.45;;;-0.60;99.90;;;;;;5071900;28;20048;-57
2021/12/03 06:12:29;;;;;;;9.80;5.85;;;-0.60;99.90;;;;;;5072168;28;20033;-59
2021/12/03 06:14:55;;;;;;;9.85;5.82;;;-0.60;99.90;;;;;;5072008;28;20041;-55
2021/12/03 06:17:20;;;;;;;10.70;5.88;;;-0.50;99.90;;;;;;5070835;28;20166;-62
2021/12/03 06:19:46;;;;;;;12.45;5.53;;;-0.50;99.90;;;;;;5071998;28;20035;-58
2021/12/03 06:22:12;;;;;;;16.45;6.05;;;-0.50;99.90;;;;;;5083696;28;20070;-60
2021/12/03 06:24:39;;;;;;;18.08;5.55;;;-0.60;99.90;;;;;;5092355;28;20035;-59
2021/12/03 06:27:06;;;;;;;15.60;7.57;;;-0.50;99.90;;;;;;5092362;28;20056;-58
2021/12/03 06:29:32;;;;;;;10.95;6.50;;;-0.60;99.90;;;;;;5092235;28;20032;-60
2021/12/03 06:31:57;;;;;;;12.38;6.22;;;-0.50;99.90;;;;;;5092572;28;20556;-63
2021/12/03 06:34:23;;;;;;;13.60;5.97;;;-0.50;99.90;;;;;;5092435;28;20040;-59
2021/12/03 06:36:49;;;;;;;10.18;5.68;;;-0.50;99.90;;;;;;5087352;28;20044;-61
2021/12/03 06:39:15;;;;;;;15.10;6.72;;;-0.50;99.90;;;;;;5071650;28;20021;-58
2021/12/03 06:41:41;;;;;;;14.63;6.90;;;-0.50;99.90;;;;;;5071622;28;20032;-60
2021/12/03 06:44:08;;;;;;;18.45;5.97;;;-0.50;99.90;;;;;;5072418;28;20075;-58
2021/12/03 06:46:35;;;;;;;18.85;6.28;;;-0.40;99.90;;;;;;5072366;28;20024;-59
2021/12/03 06:49:01;;;;;;;12.40;5.70;;;-0.40;99.90;;;;;;5071272;28;20128;-58
2021/12/03 06:51:27;;;;;;;12.95;5.82;;;-0.40;99.90;;;;;;5071650;28;20135;-58
2021/12/03 06:53:58;;;;;;;14.75;6.13;;;-0.50;99.90;;;;;;5070845;28;20072;-58
2021/12/03 06:56:31;;;;;;;23.40;6.90;;;-0.50;99.90;;;;;;5072497;28;20098;-56
2021/12/03 06:58:57;;;;;;;10.70;6.28;;;-0.50;99.90;;;;;;5071617;28;20032;-59
2021/12/03 07:01:23;;;;;;;15.70;6.78;;;-0.50;99.90;;;;;;5061908;28;20106;-59
2021/12/03 07:03:48;;;;;;;18.33;6.50;;;-0.50;99.90;;;;;;5052657;28;20489;-64
2021/12/03 07:06:14;;;;;;;17.50;6.90;;;-0.50;99.90;;;;;;5052130;28;20064;-59
2021/12/03 07:08:40;;;;;;;12.73;6.28;;;-0.50;99.90;;;;;;5051647;28;20044;-63
2021/12/03 07:11:05;;;;;;;13.45;6.18;;;-0.50;99.90;;;;;;5055859;28;20048;-61
2021/12/03 07:13:31;;;;;;;18.98;8.43;;;-0.50;99.90;;;;;;5071159;28;20040;-62
2021/12/03 07:15:59;;;;;;;13.15;7.15;;;-0.50;99.90;;;;;;5071626;28;20051;-62
2021/12/03 07:18:24;;;;;;;12.35;6.40;;;-0.50;99.90;;;;;;5072493;28;20483;-55
2021/12/03 07:20:50;;;;;;;11.77;6.85;;;-0.40;99.90;;;;;;5068991;28;20035;-59
2021/12/03 07:23:16;;;;;;;12.73;6.60;;;-0.50;99.90;;;;;;5069031;28;20082;-56
2021/12/03 07:25:42;;;;;;;11.02;7.20;;;-0.50;99.90;;;;;;5051753;28;20036;-59
2021/12/03 07:28:08;;;;;;;12.43;6.47;;;-0.50;99.90;;;;;;5034259;28;20029;-63
2021/12/03 07:30:33;;;;;;;14.13;6.15;;;-0.40;99.90;;;;;;5062358;28;20031;-63
2021/12/03 07:32:59;;;;;;;11.02;6.50;;;-0.40;99.90;;;;;;5063623;28;20044;-59
2021/12/03 07:35:25;;;;;;;10.20;6.00;;;-0.40;99.90;;;;;;5067041;28;20045;-57
2021/12/03 07:37:50;;;;;;;14.48;6.18;;;-0.50;99.90;;;;;;5065682;28;20021;-58
2021/12/03 07:40:16;;;;;;;13.05;6.43;;;-0.50;99.90;;;;;;5063866;28;20040;-61
2021/12/03 07:42:42;;;;;;;10.95;6.40;;;-0.50;99.90;;;;;;5063827;28;20037;-62
2021/12/03 07:45:15;;;;;;;10.10;6.22;;;-0.40;99.90;;;;;;5061286;28;20025;-61
2021/12/03 07:47:41;;;;;;;12.93;6.53;;;-0.40;99.90;;;;;;5063650;28;20025;-59
2021/12/03 07:50:10;;;;;;;12.07;6.20;;;-0.30;99.90;;;;;;5063959;28;20040;-57
2021/12/03 07:52:36;;;;;;;13.02;6.22;;;-0.30;99.90;;;;;;5064859;28;20020;-60
2021/12/03 07:55:03;;;;;;;11.98;5.50;;;-0.20;99.90;;;;;;5065028;28;20097;-61
2021/12/03 07:57:28;;;;;;;16.70;5.90;;;-0.10;99.90;;;;;;5060818;28;20491;-56
2021/12/03 07:59:54;;;;;;;12.93;6.10;;;0.00;99.90;;;;;;5063409;28;20033;-56
2021/12/03 08:02:20;;;;;;;8.80;5.43;;;0.00;99.90;;;;;;5059153;28;20190;-62
2021/12/03 08:04:45;;;;;;;9.50;4.88;;;0.10;99.90;;;;;;5060244;28;20036;-62
2021/12/03 08:07:12;;;;;;;12.63;5.68;;;0.20;99.90;;;;;;5063328;28;20397;-58
2021/12/03 08:09:37;;;;;;;9.82;5.95;;;0.10;99.90;;;;;;5062472;28;20472;-57
2021/12/03 08:12:05;;;;;;;11.15;5.68;;;0.20;99.90;;;;;;5058683;28;20048;-57
2021/12/03 08:14:31;;;;;;;16.38;6.82;;;0.10;99.90;;;;;;5074494;28;20055;-59
2021/12/03 08:16:56;;;;;;;11.00;5.97;;;0.20;99.90;;;;;;5064146;28;20041;-58
2021/12/03 08:19:22;;;;;;;11.07;5.47;;;0.20;99.90;;;;;;5062321;28;20029;-58
2021/12/03 08:21:48;;;;;;;9.65;5.25;;;0.30;99.90;;;;;;5066395;28;20035;-59
2021/12/03 08:24:13;;;;;;;10.52;5.38;;;0.30;99.90;;;;;;5064372;28;20056;-61
2021/12/03 08:26:39;;;;;;;11.55;5.38;;;0.30;99.90;;;;;;5062369;28;20025;-58
2021/12/03 08:29:05;;;;;;;12.13;6.35;;;0.40;99.90;;;;;;5061407;28;20120;-61
2021/12/03 08:31:31;;;;;;;12.85;6.18;;;0.40;99.90;;;;;;5062617;28;20036;-60
2021/12/03 08:33:56;;;;;;;9.30;5.65;;;0.40;99.90;;;;;;5067465;28;20031;-55
2021/12/03 08:36:22;;;;;;;12.80;5.95;;;0.40;99.90;;;;;;5065403;28;20044;-57
2021/12/03 08:38:48;;;;;;;11.48;6.07;;;0.40;99.90;;;;;;5054209;28;20120;-58
2021/12/03 08:41:18;;;;;;;8.25;5.75;;;0.50;99.90;;;;;;5068638;28;20040;-58
2021/12/03 08:43:48;;;;;;;13.25;6.40;;;0.50;99.90;;;;;;5072799;28;20035;-60
2021/12/03 08:46:21;;;;;;;13.57;6.70;;;0.50;99.90;;;;;;5072966;28;20025;-59
2021/12/03 08:48:48;;;;;;;11.52;6.93;;;0.50;99.90;;;;;;5074929;28;20545;-57
2021/12/03 08:51:30;;;;;;;10.75;6.57;;;0.60;99.90;;;;;;5073514;28;20071;-58
2021/12/03 08:56:40;;;;;;;14.25;8.02;;;0.50;99.90;;;;;;5073444;28;20028;-59
2021/12/03 08:59:05;;;;;;;11.85;7.35;;;0.50;99.90;;;;;;5073722;28;20051;-62
2021/12/03 09:01:31;;;;;;;12.35;7.68;;;0.70;99.90;;;;;;5073646;28;20044;-55
2021/12/03 09:03:57;;;;;;;13.77;8.27;;;0.60;99.90;;;;;;5072199;28;20081;-57
2021/12/03 09:06:22;;;;;;;15.48;9.48;;;0.60;99.90;;;;;;5072952;28;20064;-58
2021/12/03 09:08:48;;;;;;;14.80;8.02;;;0.60;99.90;;;;;;5073485;28;20036;-60
2021/12/03 09:11:15;;;;;;;15.80;9.45;;;0.80;99.90;;;;;;5073284;28;20043;-57
2021/12/03 09:13:41;;;;;;;15.38;8.35;;;0.70;99.90;;;;;;5073386;28;20411;-59
2021/12/03 09:16:10;;;;;;;12.13;8.50;;;0.70;99.90;;;;;;5073995;28;20078;-61
2021/12/03 09:18:41;;;;;;;15.27;7.68;;;0.60;99.90;;;;;;5071943;28;20055;-61
2021/12/03 09:21:12;;;;;;;13.57;8.55;;;0.60;99.90;;;;;;5070245;28;20029;-58
2021/12/03 09:26:19;;;;;;;17.80;9.10;;;0.60;99.90;;;;;;5062217;28;20029;-57
2021/12/03 09:28:53;;;;;;;13.75;8.65;;;0.60;99.90;;;;;;5061379;28;20032;-59
2021/12/03 09:31:18;;;;;;;16.67;9.73;;;0.50;99.90;;;;;;5066443;28;20079;-57
2021/12/03 09:33:47;;;;;;;16.80;9.55;;;0.50;99.90;;;;;;5062786;28;20484;-59
2021/12/03 09:36:13;;;;;;;13.93;8.90;;;0.50;99.90;;;;;;5061843;28;20043;-62
2021/12/03 09:38:39;;;;;;;14.88;8.43;;;0.60;99.90;;;;;;5056673;28;20108;-59
2021/12/03 09:41:12;;;;;;;17.77;9.65;;;0.60;99.90;;;;;;5058592;28;20037;-59
2021/12/03 09:43:43;;;;;;;12.63;8.73;;;0.60;99.90;;;;;;5061141;28;20020;-60
2021/12/03 09:46:16;;;;;;;16.02;9.57;;;0.70;99.90;;;;;;5060659;28;20664;-55
2021/12/03 09:49:18;;;;;;;13.20;9.13;;;0.80;99.90;;;;;;5061027;28;20023;-59
2021/12/03 09:54:41;;;;;;;15.10;9.80;;;0.90;99.90;;;;;;5065245;28;20074;-62
2021/12/03 09:57:13;;;;;;;16.13;9.75;;;0.90;99.90;;;;;;5064169;28;20097;-59
2021/12/03 10:14:09;;;;;;;12.27;9.00;;;1.60;99.90;;;;;;5057787;28;20112;-60
2021/12/03 10:17:19;;;;;;;14.55;9.50;;;1.70;99.90;;;;;;5072388;28;20761;-61
2021/12/03 10:28:39;;;;;;;15.45;10.32;;;1.70;99.90;;;;;;5052241;28;20519;-62
2021/12/03 10:36:55;;;;;;;14.65;10.35;;;1.70;99.90;;;;;;5065917;28;20033;-64
2021/12/03 10:42:03;;;;;;;18.85;11.13;;;1.80;99.90;;;;;;5057180;28;20123;-57
2021/12/03 10:44:57;;;;;;;16.10;10.63;;;1.70;99.90;;;;;;5062544;28;20480;-56
2021/12/03 11:06:35;;;;;;;21.77;10.23;;;2.10;99.90;;;;;;5071903;28;20047;-57
2021/12/03 11:31:34;;;;;;;13.30;9.03;;;2.40;99.90;;;;;;5075632;28;20040;-60
2021/12/03 11:42:44;;;;;;;15.48;9.43;;;2.70;99.90;;;;;;5055421;28;20029;-59
2021/12/03 11:59:35;;;;;;;12.00;8.40;;;2.90;99.90;;;;;;5065680;28;20111;-61
2021/12/03 12:02:16;;;;;;;14.90;8.95;;;2.80;99.90;;;;;;5066238;28;20052;-59
2021/12/03 12:18:55;;;;;;;11.25;7.40;;;3.10;99.20;;;;;;5068177;28;20114;-58
2021/12/03 13:10:57;;;;;;;9.68;6.35;;;3.20;99.40;;;;;;5056004;28;20036;-60
2021/12/03 13:13:57;;;;;;;12.35;6.45;;;3.30;99.10;;;;;;5056336;28;20036;-60
2021/12/03 13:34:00;;;;;;;9.38;6.22;;;3.60;98.70;;;;;;5073092;28;20040;-61
2021/12/03 14:12:44;;;;;;;9.82;6.38;;;3.20;99.90;;;;;;5052583;28;20032;-61
2021/12/03 14:44:28;;;;;;;8.27;6.15;;;3.40;99.90;;;;;;5052912;28;20025;-60
2021/12/03 14:55:02;;;;;;;11.00;7.07;;;3.30;99.90;;;;;;5052308;28;20068;-59
2021/12/03 14:57:43;;;;;;;10.52;7.38;;;3.30;99.90;;;;;;5052531;28;20037;-62
2021/12/03 15:00:27;;;;;;;21.70;16.92;;;3.30;99.90;;;;;;5062739;28;20491;-60
2021/12/03 15:08:21;;;;;;;11.68;7.60;;;3.20;99.90;;;;;;5063206;28;20346;-58
2021/12/03 15:13:30;;;;;;;13.73;8.60;;;3.10;99.90;;;;;;5051407;28;20048;-60
2021/12/03 15:26:07;;;;;;;16.60;8.18;;;3.30;99.90;;;;;;5061670;28;20029;-62
2021/12/03 15:28:56;;;;;;;13.13;8.63;;;3.40;99.90;;;;;;5070774;28;20373;-56
2021/12/03 15:34:07;;;;;;;10.88;7.65;;;3.40;99.90;;;;;;5068448;28;20033;-62
2021/12/03 15:39:41;;;;;;;12.43;8.20;;;3.20;99.90;;;;;;5051888;28;20029;-61
2021/12/03 15:58:31;;;;;;;11.77;7.70;;;2.80;99.90;;;;;;5064570;28;20385;-64
2021/12/03 16:03:53;;;;;;;13.77;7.93;;;2.80;99.90;;;;;;5057856;28;20061;-63
2021/12/03 16:06:29;;;;;;;11.52;7.70;;;2.80;99.90;;;;;;5065857;28;20115;-63
2021/12/03 16:09:07;;;;;;;11.73;8.15;;;2.70;99.90;;;;;;5074579;28;20052;-63
2021/12/03 16:22:21;;;;;;;11.95;7.88;;;2.70;99.90;;;;;;5070322;28;20032;-64
2021/12/03 16:46:23;;;;;;;12.18;7.57;;;2.70;99.90;;;;;;5074293;28;20058;-63
2021/12/03 16:51:53;;;;;;;10.77;8.13;;;2.70;99.90;;;;;;5054621;28;20029;-61
2021/12/03 16:54:26;;;;;;;12.90;8.57;;;2.70;99.90;;;;;;5053223;28;20228;-60
2021/12/03 16:56:54;;;;;;;12.18;7.82;;;2.70;99.90;;;;;;5070000;28;20048;-62
2021/12/03 16:59:21;;;;;;;12.82;8.20;;;2.60;99.90;;;;;;5058284;28;20025;-62
2021/12/03 17:01:54;;;;;;;12.85;8.20;;;2.60;99.90;;;;;;5072844;28;20115;-63
2021/12/03 17:53:03;;;;;;;9.27;6.60;;;2.50;99.90;;;;;;5053993;28;20033;-61
2021/12/03 17:58:29;;;;;;;10.00;7.00;;;2.50;99.90;;;;;;5073193;28;20036;-63
2021/12/03 18:01:04;;;;;;;10.98;6.40;;;2.50;99.90;;;;;;5053405;28;20029;-65
2021/12/03 18:03:42;;;;;;;12.10;6.97;;;2.50;99.90;;;;;;5052916;28;20018;-61
2021/12/03 18:15:06;;;;;;;9.18;6.30;;;2.50;99.90;;;;;;5040045;28;20069;-60
2021/12/03 18:52:37;;;;;;;7.65;6.10;;;2.40;99.90;;;;;;5071773;28;20043;-64
2021/12/03 18:55:07;;;;;;;8.55;5.82;;;2.40;99.90;;;;;;5051918;28;20048;-62
2021/12/03 18:57:42;;;;;;;8.40;5.55;;;2.40;99.90;;;;;;5051738;28;20048;-62
2021/12/03 19:00:10;;;;;;;;;;;2.40;99.90;;;;;;5069653;28;20044;-64
2021/12/03 19:02:38;;;;;;;8.88;5.63;;;2.40;99.90;;;;;;5092355;28;19911;-63
2021/12/03 19:07:47;;;;;;;8.48;5.45;;;2.30;99.90;;;;;;5091959;28;20036;-64
2021/12/03 19:10:21;;;;;;;7.38;5.57;;;2.30;99.90;;;;;;5091647;28;20044;-64
2021/12/03 19:12:55;;;;;;;10.25;5.13;;;2.30;99.90;;;;;;5090898;28;20450;-66
2021/12/03 19:15:21;;;;;;;8.20;5.40;;;2.30;99.90;;;;;;5092224;28;20392;-63
2021/12/03 19:17:48;;;;;;;9.13;5.68;;;2.30;99.90;;;;;;5087849;28;20067;-61
2021/12/03 19:20:17;;;;;;;6.93;5.43;;;2.40;99.90;;;;;;5052356;28;20037;-60
2021/12/03 19:22:42;;;;;;;9.32;5.57;;;2.40;99.90;;;;;;5081634;28;20093;-59
2021/12/03 19:25:09;;;;;;;8.90;5.10;;;2.40;99.90;;;;;;5091292;28;20028;-63
2021/12/03 19:27:35;;;;;;;8.55;5.40;;;2.40;99.90;;;;;;5066432;28;20104;-62
2021/12/03 19:30:01;;;;;;;12.55;5.60;;;2.40;99.90;;;;;;5061298;28;20071;-60
2021/12/03 19:32:29;;;;;;;10.60;5.97;;;2.40;99.90;;;;;;5075813;28;20068;-60
2021/12/03 19:34:55;;;;;;;9.10;5.03;;;2.40;99.90;;;;;;5064092;28;20032;-60
2021/12/03 19:37:23;;;;;;;8.63;5.47;;;2.40;99.90;;;;;;5054217;28;20033;-60
2021/12/03 19:39:49;;;;;;;8.02;5.47;;;2.40;99.90;;;;;;5054963;28;20037;-61
2021/12/03 19:42:19;;;;;;;7.28;5.63;;;2.50;99.90;;;;;;5056371;28;20084;-61
2021/12/03 19:44:49;;;;;;;8.18;5.50;;;2.40;99.90;;;;;;5073964;28;20625;-63
2021/12/03 19:47:15;;;;;;;9.10;6.07;;;2.50;99.90;;;;;;5075048;28;20028;-60
2021/12/03 19:54:48;;;;;;;9.48;6.25;;;2.50;99.90;;;;;;5057515;28;20060;-61
2021/12/03 19:57:14;;;;;;;8.02;5.38;;;2.50;99.90;;;;;;5054249;28;20071;-63
2021/12/03 19:59:39;;;;;;;8.40;5.60;;;2.50;99.90;;;;;;5054486;28;20563;-63
2021/12/03 20:02:05;;;;;;;11.93;5.20;;;2.50;99.90;;;;;;5060465;28;20503;-61
2021/12/03 20:04:30;;;;;;;7.63;5.80;;;2.50;99.90;;;;;;5074934;28;20040;-62
2021/12/03 20:06:56;;;;;;;9.23;5.47;;;2.50;99.90;;;;;;5073769;28;20036;-62
2021/12/03 20:09:27;;;;;;;9.45;5.63;;;2.50;99.90;;;;;;5074420;28;20115;-63
2021/12/03 20:11:56;;;;;;;7.88;6.00;;;2.60;99.90;;;;;;5073591;28;20039;-61